CheckWX is a tool to help pilots better visualize weather data.  It is not intended as a substitute for an official pre-flight weather briefing.

06:58:37 UTC

ZSJN TAF
Yaoqiang Airport
Jinan, China
TAF ZSJN 181515Z 1818/1918 24003MPS 5000 HZ NSC TX38/06Z TN25/21Z

Jun-18@
18:00 UTC

Jun-18 @ 18:00 UTC

Jun-19@
18:00 UTC

Jun-19 @ 18:00 UTC

TAF ZSJN 181515Z 1818/1918 24003MPS 5000 HZ NSC TX38/06Z TN25/21Z
Wind
  • 240° at 6 KTS
Conditions
Haze
Cloud Levels
  • No significant clouds